Time;durP1;ratioP1;P1;durP2;ratioP2;P2;SDS_P1;SDS_P2;PMS_P1;PMS_P2;Temp;Humidity;BMP_temperature;BMP_pressure;BME280_temperature;BME280_humidity;BME280_pressure;Samples;Min_cycle;Max_cycle;Signal;HPM_P1;HPM_P2
2022/09/16 00:00:57;;;;;;;7.07;2.03;;;;;;;20.68;51.58;94318.88;5110464;28;20500;-72
2022/09/16 00:03:22;;;;;;;5.18;1.95;;;;;;;20.69;50.21;94312.56;5110155;28;20101;-72
2022/09/16 00:05:50;;;;;;;5.30;2.08;;;;;;;20.66;48.47;94305.88;5110286;28;20054;-72
2022/09/16 00:08:16;;;;;;;5.53;2.05;;;;;;;20.68;48.00;94300.41;5093316;28;20042;-72
2022/09/16 00:10:44;;;;;;;5.85;2.10;;;;;;;20.77;48.50;94293.91;5092967;28;20044;-72
2022/09/16 00:13:10;;;;;;;5.30;1.80;;;;;;;20.78;50.65;94295.53;5110053;28;20108;-72
2022/09/16 00:15:36;;;;;;;6.07;2.10;;;;;;;20.64;50.04;94307.09;5093078;28;20548;-72
2022/09/16 00:18:01;;;;;;;9.15;1.95;;;;;;;20.43;50.25;94314.13;5111131;28;20100;-72
2022/09/16 00:20:27;;;;;;;11.27;2.10;;;;;;;20.51;49.74;94324.50;5092999;28;20513;-72
2022/09/16 00:22:52;;;;;;;6.88;2.17;;;;;;;20.51;49.87;94319.22;5111161;28;20074;-72
2022/09/16 00:25:18;;;;;;;6.60;1.80;;;;;;;20.50;51.00;94324.69;5109978;28;20035;-72
2022/09/16 00:27:46;;;;;;;11.10;2.33;;;;;;;20.39;50.71;94323.44;5121207;28;20423;-72
2022/09/16 00:30:11;;;;;;;14.15;2.35;;;;;;;20.34;49.92;94315.34;5113706;28;20123;-72
2022/09/16 00:32:37;;;;;;;10.18;2.03;;;;;;;20.41;49.48;94317.97;5130381;28;20024;-72
2022/09/16 00:35:02;;;;;;;6.22;1.90;;;;;;;20.43;50.76;94321.22;5131538;27;20031;-72
2022/09/16 00:37:30;;;;;;;5.28;1.90;;;;;;;20.38;51.32;94313.91;5113226;28;20027;-72
2022/09/16 00:39:56;;;;;;;6.35;1.80;;;;;;;20.37;51.18;94322.84;5113635;28;20424;-72
2022/09/16 00:42:21;;;;;;;3.22;1.67;;;;;;;20.24;50.75;94313.06;5131499;27;20015;-72
2022/09/16 00:44:51;;;;;;;6.47;2.10;;;;;;;20.19;51.86;94315.47;5130331;28;20023;-72
2022/09/16 00:47:29;;;;;;;5.10;1.70;;;;;;;20.12;52.30;94322.56;5130194;28;20122;-72
2022/09/16 00:49:58;;;;;;;5.35;1.75;;;;;;;20.11;52.79;94320.91;5131405;27;20059;-72
2022/09/16 00:52:24;;;;;;;7.45;1.67;;;;;;;20.11;52.25;94333.28;5096522;28;20390;-72
2022/09/16 00:54:49;;;;;;;8.57;2.13;;;;;;;20.04;51.91;94320.91;5113113;28;20027;-72
2022/09/16 00:57:14;;;;;;;11.50;2.10;;;;;;;20.03;49.91;94324.56;5130129;28;20039;-72
2022/09/16 00:59:44;;;;;;;7.80;1.90;;;;;;;20.02;49.47;94316.84;5113122;28;20485;-72
2022/09/16 01:02:11;;;;;;;4.90;1.83;;;;;;;20.03;51.37;94335.09;5113439;28;20035;-72
2022/09/16 01:04:56;;;;;;;7.25;2.13;;;;;;;20.02;51.92;94346.63;5113250;28;20389;-72
2022/09/16 01:07:44;;;;;;;5.15;1.80;;;;;;;19.97;50.64;94341.13;5114342;28;20039;-72
2022/09/16 01:10:11;;;;;;;9.70;2.00;;;;;;;19.96;50.60;94322.91;5115719;28;20477;-72
2022/09/16 01:12:36;;;;;;;7.05;1.80;;;;;;;19.93;51.07;94334.66;5113149;28;20027;-72
2022/09/16 01:15:02;;;;;;;8.98;1.95;;;;;;;19.97;52.44;94341.13;5130127;28;20038;-72
2022/09/16 01:17:46;;;;;;;4.82;1.80;;;;;;;19.80;52.05;94345.13;5112843;28;20131;-72
2022/09/16 01:20:40;;;;;;;4.57;2.00;;;;;;;19.82;51.96;94343.09;5131300;27;20145;-72
2022/09/16 01:23:43;;;;;;;9.13;2.20;;;;;;;19.81;51.24;94334.41;5132168;27;20038;-72
2022/09/16 01:26:36;;;;;;;5.65;1.73;;;;;;;19.79;50.56;94340.88;5133694;27;20058;-72
2022/09/16 01:29:25;;;;;;;6.38;1.90;;;;;;;19.72;52.12;94329.47;5113036;28;20028;-72
2022/09/16 01:32:11;;;;;;;7.70;1.90;;;;;;;19.77;52.07;94321.78;5113012;28;20069;-72
2022/09/16 01:34:47;;;;;;;8.52;1.88;;;;;;;19.79;53.15;94332.97;5112995;28;20039;-72
2022/09/16 01:37:12;;;;;;;8.50;2.10;;;;;;;19.79;52.97;94351.41;5113077;28;20409;-72
2022/09/16 01:39:52;;;;;;;7.43;2.45;;;;;;;19.55;53.53;94344.75;5114195;28;20031;-72
2022/09/16 01:42:37;;;;;;;6.93;2.25;;;;;;;19.56;53.39;94346.38;5096345;28;20039;-72
2022/09/16 01:45:07;;;;;;;4.95;2.10;;;;;;;19.61;53.33;94331.63;5097375;28;20031;-72
2022/09/16 01:47:32;;;;;;;5.22;2.03;;;;;;;19.59;52.95;94319.66;5129759;27;20031;-72
2022/09/16 01:50:19;;;;;;;6.10;2.30;;;;;;;19.62;52.30;94312.16;5113849;28;20505;-72
2022/09/16 01:52:48;;;;;;;9.43;2.33;;;;;;;19.68;54.24;94317.69;5097853;28;20095;-72
2022/09/16 01:55:35;;;;;;;5.93;1.95;;;;;;;19.71;52.05;94318.13;5112511;28;20081;-72
2022/09/16 01:58:22;;;;;;;6.38;2.20;;;;;;;19.79;52.26;94330.31;5112479;28;20114;-72
2022/09/16 02:00:47;;;;;;;5.30;2.00;;;;;;;19.76;53.83;94325.44;5111331;28;20069;-72
2022/09/16 02:03:16;;;;;;;8.82;2.25;;;;;;;19.72;51.71;94321.56;5111587;28;20039;-71
2022/09/16 02:05:49;;;;;;;5.97;1.98;;;;;;;19.77;52.69;94324.44;5112311;28;20510;-72
2022/09/16 02:08:25;;;;;;;4.38;2.28;;;;;;;19.82;51.07;94320.19;5112265;28;20173;-72
2022/09/16 02:10:54;;;;;;;6.22;2.00;;;;;;;19.89;52.74;94329.94;5129490;27;20064;-72
2022/09/16 02:13:27;;;;;;;6.15;2.05;;;;;;;19.92;50.83;94309.31;5112144;28;20064;-72
2022/09/16 02:15:52;;;;;;;6.97;2.00;;;;;;;20.00;50.49;94295.97;5112393;28;20052;-72
2022/09/16 02:18:21;;;;;;;6.68;2.35;;;;;;;20.05;50.15;94309.34;5112102;28;20048;-72
2022/09/16 02:20:46;;;;;;;8.82;2.20;;;;;;;20.14;51.39;94304.69;5112290;27;20187;-72
2022/09/16 02:23:19;;;;;;;5.93;1.88;;;;;;;20.15;51.24;94303.72;5112011;28;20525;-72
2022/09/16 02:25:45;;;;;;;5.32;1.83;;;;;;;20.19;50.64;94299.66;5112262;27;20042;-72
2022/09/16 02:28:13;;;;;;;4.95;1.67;;;;;;;20.18;51.43;94324.41;5111800;28;20035;-72
2022/09/16 02:30:41;;;;;;;5.80;2.03;;;;;;;20.19;52.29;94320.75;5111670;27;20497;-72
2022/09/16 02:33:06;;;;;;;6.47;2.00;;;;;;;20.16;51.81;94310.59;5114711;27;20042;-72
2022/09/16 02:35:33;;;;;;;9.10;2.67;;;;;;;20.18;51.07;94307.78;5114748;27;20031;-72
2022/09/16 02:38:00;;;;;;;7.63;2.55;;;;;;;20.18;50.61;94318.31;5115247;27;20106;-72
2022/09/16 02:40:35;;;;;;;5.60;1.90;;;;;;;20.23;51.34;94313.28;5096455;27;20108;-72
2022/09/16 02:43:01;;;;;;;7.78;2.05;;;;;;;20.22;50.76;94298.44;5115315;27;20029;-72
2022/09/16 02:45:44;;;;;;;8.15;2.10;;;;;;;20.18;49.06;94310.41;5112102;27;20035;-72
2022/09/16 02:48:18;;;;;;;6.78;1.90;;;;;;;20.21;51.64;94331.09;5112650;28;20164;-72
2022/09/16 02:50:54;;;;;;;6.90;1.90;;;;;;;20.15;52.21;94335.34;5111478;28;20028;-72
2022/09/16 02:53:40;;;;;;;7.07;2.28;;;;;;;20.20;52.58;94337.41;5102632;27;20390;-72
2022/09/16 02:56:15;;;;;;;7.75;1.98;;;;;;;20.18;51.09;94336.78;5101737;28;20108;-72
2022/09/16 02:58:40;;;;;;;5.45;1.95;;;;;;;20.15;51.60;94321.34;5112590;28;20038;-72
2022/09/16 03:01:07;;;;;;;4.38;2.08;;;;;;;20.20;52.61;94321.59;5119618;27;20035;-72
2022/09/16 03:03:32;;;;;;;7.57;2.17;;;;;;;20.06;53.79;94332.06;5131975;27;20024;-72
2022/09/16 03:06:19;;;;;;;4.90;1.90;;;;;;;20.03;53.31;94327.19;5133139;27;20092;-72
2022/09/16 03:08:44;;;;;;;7.00;2.38;;;;;;;20.01;52.26;94334.47;5131696;27;20506;-72
2022/09/16 03:11:43;;;;;;;5.85;1.73;;;;;;;19.97;53.26;94327.16;5129528;27;20040;-72
2022/09/16 03:14:28;;;;;;;7.22;1.88;;;;;;;19.94;53.54;94343.38;5132742;27;20086;-72
2022/09/16 03:16:54;;;;;;;7.88;2.05;;;;;;;19.91;53.86;94360.38;5120797;27;20023;-72
2022/09/16 03:19:47;;;;;;;6.07;2.00;;;;;;;19.82;53.17;94349.19;5112231;28;20050;-72
2022/09/16 03:22:42;;;;;;;6.18;2.45;;;;;;;19.85;52.65;94355.91;5121314;27;20063;-72
2022/09/16 03:25:39;;;;;;;7.18;1.88;;;;;;;19.92;54.14;94350.66;5110890;28;20107;-72
2022/09/16 03:28:18;;;;;;;5.30;1.85;;;;;;;19.89;53.06;94366.84;5107490;27;20047;-72
2022/09/16 03:31:08;;;;;;;7.03;2.30;;;;;;;19.93;53.58;94350.47;5110718;28;20036;-72
2022/09/16 03:33:55;;;;;;;6.10;1.90;;;;;;;19.81;52.90;94349.41;5110625;28;20031;-72
2022/09/16 03:36:24;;;;;;;7.53;2.08;;;;;;;19.80;53.15;94366.19;5111551;28;20560;-72
2022/09/16 03:38:50;;;;;;;7.20;2.08;;;;;;;19.78;54.07;94366.41;5077157;28;20058;-72
2022/09/16 03:41:15;;;;;;;7.35;2.20;;;;;;;19.80;55.14;94353.03;5076616;28;20504;-72
2022/09/16 03:43:52;;;;;;;5.00;2.05;;;;;;;19.71;52.90;94333.94;5101710;27;20039;-72
2022/09/16 03:46:17;;;;;;;4.45;1.88;;;;;;;19.74;52.60;94341.44;5113284;27;20034;-72
2022/09/16 03:48:42;;;;;;;6.63;1.83;;;;;;;19.82;54.25;94336.00;5130930;27;20023;-72
2022/09/16 03:51:08;;;;;;;5.28;2.10;;;;;;;19.83;54.63;94323.66;5131044;27;20452;-72
2022/09/16 03:53:33;;;;;;;4.97;2.00;;;;;;;19.83;52.21;94311.28;5111779;27;20041;-72
2022/09/16 03:55:59;;;;;;;7.43;2.10;;;;;;;19.82;51.10;94322.03;5130887;27;20031;-72
2022/09/16 03:58:24;;;;;;;7.97;2.10;;;;;;;19.84;51.81;94328.72;5130646;27;20239;-72
2022/09/16 04:00:50;;;;;;;6.68;2.42;;;;;;;19.93;53.79;94336.47;5127319;27;20028;-72
2022/09/16 04:03:16;;;;;;;10.88;3.80;;;;;;;19.94;54.66;94328.34;5093148;28;20032;-72
2022/09/16 04:05:41;;;;;;;6.93;3.25;;;;;;;19.82;54.83;94319.41;5110261;28;20039;-72
2022/09/16 04:08:07;;;;;;;9.50;3.20;;;;;;;19.79;55.59;94317.97;5111348;28;20100;-72
2022/09/16 04:10:33;;;;;;;8.95;3.22;;;;;;;19.74;56.08;94330.91;5118811;27;20515;-72
2022/09/16 04:12:59;;;;;;;9.55;3.28;;;;;;;19.66;56.04;94325.78;5131818;27;20117;-72
2022/09/16 04:15:24;;;;;;;7.63;3.22;;;;;;;19.63;54.42;94326.97;5110281;28;20031;-72
2022/09/16 04:17:50;;;;;;;6.47;3.58;;;;;;;19.65;54.78;94337.31;5109902;28;20483;-72
2022/09/16 04:20:15;;;;;;;10.00;3.53;;;;;;;19.68;55.83;94367.75;5110088;28;20096;-72
2022/09/16 04:22:41;;;;;;;9.63;3.05;;;;;;;19.71;55.81;94393.72;5108651;28;20110;-72
2022/09/16 04:25:07;;;;;;;11.35;2.88;;;;;;;19.66;55.31;94388.22;5126205;28;20064;-72
2022/09/16 04:27:32;;;;;;;10.77;2.75;;;;;;;19.58;55.06;94387.31;5129034;28;20122;-72
2022/09/16 04:29:58;;;;;;;10.05;2.78;;;;;;;19.57;54.59;94398.06;5130250;27;20413;-72
2022/09/16 04:32:23;;;;;;;9.38;3.13;;;;;;;19.67;55.13;94395.09;5128922;28;20035;-72
2022/09/16 04:34:49;;;;;;;5.32;2.40;;;;;;;19.63;55.13;94387.56;5131568;27;20493;-72
2022/09/16 04:37:14;;;;;;;5.05;2.78;;;;;;;19.67;55.20;94387.19;5103344;28;20031;-72
2022/09/16 04:39:40;;;;;;;8.85;2.38;;;;;;;19.64;55.56;94383.94;5112369;27;20128;-72
2022/09/16 04:42:06;;;;;;;6.97;2.67;;;;;;;19.64;56.28;94377.84;5124077;28;20031;-72
2022/09/16 04:44:31;;;;;;;7.93;2.65;;;;;;;19.66;56.25;94372.41;5128949;28;20053;-72
2022/09/16 04:46:57;;;;;;;8.75;2.95;;;;;;;19.72;56.40;94382.16;5111333;28;20063;-73
2022/09/16 04:49:22;;;;;;;8.80;2.17;;;;;;;19.62;56.73;94372.75;5109732;28;20720;-75
2022/09/16 04:51:49;;;;;;;7.28;2.83;;;;;;;19.65;56.45;94379.47;5096791;28;20090;-72
2022/09/16 04:54:15;;;;;;;5.78;2.50;;;;;;;19.64;56.92;94386.56;5112765;28;20070;-73
2022/09/16 04:56:40;;;;;;;5.75;2.47;;;;;;;19.70;56.53;94389.47;5084694;28;20027;-72
2022/09/16 04:59:06;;;;;;;6.95;2.50;;;;;;;19.72;56.81;94397.97;5112910;28;20397;-72
2022/09/16 05:01:33;;;;;;;7.43;2.15;;;;;;;19.79;56.56;94393.56;5112845;28;20031;-72
2022/09/16 05:04:01;;;;;;;5.80;2.00;;;;;;;19.83;55.78;94397.44;5130791;27;20028;-72
2022/09/16 05:06:31;;;;;;;6.32;2.55;;;;;;;20.00;52.80;94390.84;5113830;27;20042;-72
2022/09/16 05:08:56;;;;;;;8.52;2.42;;;;;;;20.39;52.54;94380.66;5130714;27;20512;-72
2022/09/16 05:11:26;;;;;;;9.18;2.75;;;;;;;20.49;52.17;94370.56;5099575;27;20040;-72
2022/09/16 05:13:52;;;;;;;9.00;2.42;;;;;;;20.83;50.20;94376.75;5115176;27;20115;-72
2022/09/16 05:16:20;;;;;;;5.95;2.15;;;;;;;21.00;51.06;94375.34;5114816;27;20521;-72
2022/09/16 05:18:46;;;;;;;7.38;2.05;;;;;;;21.45;51.01;94372.13;5114821;27;20062;-72
2022/09/16 05:21:17;;;;;;;10.88;2.20;;;;;;;22.07;49.23;94373.44;5131690;27;20031;-73
2022/09/16 05:23:44;;;;;;;6.28;2.20;;;;;;;22.79;48.49;94363.56;5114715;27;20023;-72
2022/09/16 05:26:11;;;;;;;8.13;2.08;;;;;;;22.86;47.15;94353.72;5127862;27;20046;-72
2022/09/16 05:28:37;;;;;;;7.40;2.28;;;;;;;22.74;45.83;94348.31;5129517;27;20053;-72
2022/09/16 05:31:15;;;;;;;13.88;2.38;;;;;;;22.88;43.48;94345.59;5114881;27;20039;-72
2022/09/16 05:33:43;;;;;;;12.43;2.58;;;;;;;22.92;43.00;94349.41;5116767;27;20511;-72
2022/09/16 05:36:16;;;;;;;10.65;2.20;;;;;;;23.06;44.04;94340.38;5116464;27;20038;-72
2022/09/16 05:38:41;;;;;;;9.75;3.50;;;;;;;23.15;43.77;94341.75;5096166;28;20106;-73
2022/09/16 05:41:07;;;;;;;9.48;2.83;;;;;;;23.25;43.24;94346.56;5097200;27;20111;-72
2022/09/16 05:43:32;;;;;;;13.95;5.50;;;;;;;23.41;44.70;94355.81;5124061;27;20024;-72
2022/09/16 05:45:58;;;;;;;6.53;2.63;;;;;;;23.47;45.00;94348.81;5097796;27;20409;-72
2022/09/16 05:48:24;;;;;;;7.28;1.80;;;;;;;23.63;40.78;94345.63;5107958;28;20039;-72
2022/09/16 05:50:56;;;;;;;9.65;2.30;;;;;;;23.82;44.28;94349.94;5112672;27;20036;-72
2022/09/16 05:53:23;;;;;;;10.77;2.25;;;;;;;23.82;46.46;94346.44;5096093;28;20028;-72
2022/09/16 05:55:58;;;;;;;8.13;2.53;;;;;;;23.93;46.48;94351.06;5101359;28;20036;-73
2022/09/16 05:58:23;;;;;;;8.10;2.50;;;;;;;23.92;47.11;94351.25;5112500;28;20027;-72
2022/09/16 06:00:49;;;;;;;7.75;2.03;;;;;;;23.94;46.99;94352.66;5124935;27;20122;-72
2022/09/16 06:03:15;;;;;;;5.13;2.13;;;;;;;24.00;47.23;94353.63;5122691;27;20031;-73
2022/09/16 06:05:40;;;;;;;10.23;3.95;;;;;;;24.07;46.24;94347.22;5108029;27;20039;-73
2022/09/16 06:08:06;;;;;;;5.63;2.20;;;;;;;24.05;47.19;94343.16;5113908;27;20023;-73
2022/09/16 06:10:36;;;;;;;8.43;2.30;;;;;;;24.07;46.59;94339.25;5082668;28;20066;-73
2022/09/16 06:13:02;;;;;;;11.40;2.20;;;;;;;24.23;46.07;94348.44;5111620;28;20509;-73
2022/09/16 06:15:27;;;;;;;7.18;1.98;;;;;;;24.35;45.80;94348.53;5112107;28;20500;-73
2022/09/16 06:17:53;;;;;;;6.65;2.03;;;;;;;24.43;46.52;94334.97;5095104;28;20048;-74
2022/09/16 06:20:19;;;;;;;6.25;2.05;;;;;;;24.61;45.26;94349.25;5078064;28;20467;-73
2022/09/16 06:22:45;;;;;;;8.45;2.08;;;;;;;24.75;43.52;94342.72;5113218;28;20031;-73
2022/09/16 06:25:10;;;;;;;7.28;1.80;;;;;;;24.85;41.37;94336.84;5111919;28;20402;-73
2022/09/16 06:27:36;;;;;;;6.53;1.98;;;;;;;24.92;37.80;94330.41;5113151;28;20024;-73
2022/09/16 06:30:02;;;;;;;8.90;2.13;;;;;;;25.01;37.24;94338.03;5079878;27;20024;-73
2022/09/16 06:32:30;;;;;;;6.47;2.13;;;;;;;25.17;37.81;94321.47;5111454;28;20051;-74
2022/09/16 06:34:55;;;;;;;9.63;2.10;;;;;;;25.34;40.72;94326.91;5106410;28;20067;-74
2022/09/16 06:37:21;;;;;;;16.38;2.45;;;;;;;25.54;40.33;94331.88;5112616;28;20524;-74
2022/09/16 06:39:46;;;;;;;8.43;2.13;;;;;;;25.63;40.17;94331.31;5112965;28;20035;-74
2022/09/16 06:42:12;;;;;;;7.80;2.17;;;;;;;25.69;39.55;94323.47;5085594;28;20035;-75
2022/09/16 06:44:37;;;;;;;10.48;2.40;;;;;;;25.78;37.46;94322.84;5127844;27;20024;-72
2022/09/16 06:47:03;;;;;;;7.22;2.33;;;;;;;25.77;40.08;94315.94;5111224;28;20028;-75
2022/09/16 06:49:29;;;;;;;5.72;2.00;;;;;;;26.01;38.46;94337.19;5113698;27;20492;-73
2022/09/16 06:51:54;;;;;;;9.32;2.20;;;;;;;26.17;36.99;94335.66;5131029;27;20031;-74
2022/09/16 06:54:22;;;;;;;8.63;1.80;;;;;;;26.26;35.35;94340.38;5120455;27;20024;-74
2022/09/16 06:56:48;;;;;;;10.57;2.10;;;;;;;26.37;35.62;94338.72;5133561;27;20042;-74
2022/09/16 06:59:13;;;;;;;10.13;2.30;;;;;;;26.42;34.64;94332.72;5132213;27;20027;-75
2022/09/16 07:01:39;;;;;;;9.57;2.65;;;;;;;26.42;35.83;94338.84;5133442;27;20489;-74
2022/09/16 07:04:09;;;;;;;8.82;2.20;;;;;;;26.54;34.00;94343.34;5133011;27;20405;-75
2022/09/16 07:06:34;;;;;;;11.23;2.33;;;;;;;26.57;34.31;94340.19;5131870;27;20124;-74
2022/09/16 07:09:00;;;;;;;7.28;2.60;;;;;;;26.67;35.05;94345.72;5114617;27;20097;-74
2022/09/16 07:11:25;;;;;;;8.77;2.60;;;;;;;26.77;36.74;94351.22;5131745;27;20466;-74
2022/09/16 07:13:51;;;;;;;9.65;2.10;;;;;;;26.86;35.05;94341.00;5114480;27;20023;-74
2022/09/16 07:16:18;;;;;;;12.70;2.45;;;;;;;26.92;34.40;94340.06;5131676;27;20046;-74
2022/09/16 07:18:44;;;;;;;8.10;2.20;;;;;;;26.99;32.94;94348.69;5131308;27;20047;-74
2022/09/16 07:21:20;;;;;;;6.93;1.95;;;;;;;26.88;33.13;94337.03;5129684;27;20069;-74
2022/09/16 07:23:46;;;;;;;10.70;3.30;;;;;;;27.07;33.61;94340.28;5097567;27;20034;-74
2022/09/16 07:26:16;;;;;;;6.68;2.58;;;;;;;27.11;34.29;94336.13;5131376;27;20055;-75
2022/09/16 07:28:45;;;;;;;10.60;2.25;;;;;;;27.15;34.15;94329.25;5114629;27;20030;-74
2022/09/16 07:31:12;;;;;;;10.05;2.10;;;;;;;27.16;32.45;94322.91;5114628;27;20043;-74
2022/09/16 07:33:39;;;;;;;10.70;2.28;;;;;;;27.20;32.95;94330.41;5114450;27;20047;-74
2022/09/16 07:36:05;;;;;;;7.85;2.15;;;;;;;27.09;33.00;94316.88;5131342;27;20043;-75
2022/09/16 07:38:31;;;;;;;11.95;2.53;;;;;;;27.21;32.82;94321.38;5113960;27;20031;-74
2022/09/16 07:41:12;;;;;;;10.98;2.10;;;;;;;27.29;33.38;94327.09;5131222;27;20054;-75
2022/09/16 07:43:39;;;;;;;11.00;2.40;;;;;;;27.37;33.50;94315.22;5131140;27;20098;-74
2022/09/16 07:46:04;;;;;;;11.05;2.35;;;;;;;27.42;32.77;94309.97;5114166;27;20065;-74
2022/09/16 07:48:30;;;;;;;9.75;2.60;;;;;;;27.51;33.23;94302.38;5113915;27;20469;-74
2022/09/16 07:51:00;;;;;;;11.43;1.90;;;;;;;27.54;32.68;94302.69;5131031;27;20042;-74
2022/09/16 07:53:26;;;;;;;10.73;2.90;;;;;;;27.48;32.06;94297.53;5132444;27;20035;-74
2022/09/16 07:55:52;;;;;;;13.88;2.20;;;;;;;27.52;32.97;94303.97;5113657;27;20584;-74
2022/09/16 07:58:18;;;;;;;9.18;2.38;;;;;;;27.55;33.08;94309.66;5113746;27;20015;-75
2022/09/16 08:00:44;;;;;;;7.43;2.53;;;;;;;27.53;33.29;94289.59;5130808;27;20027;-74
2022/09/16 08:03:09;;;;;;;11.52;2.45;;;;;;;27.67;33.21;94296.19;5113670;27;20481;-74
2022/09/16 08:05:35;;;;;;;10.82;2.65;;;;;;;27.75;32.88;94294.94;5130726;27;20031;-74
2022/09/16 08:08:00;;;;;;;9.32;2.40;;;;;;;27.87;33.98;94282.34;5096491;27;20031;-74
2022/09/16 08:10:26;;;;;;;9.68;2.42;;;;;;;27.81;32.94;94278.00;5132134;27;20039;-74
2022/09/16 08:12:52;;;;;;;11.13;2.60;;;;;;;27.93;32.77;94283.22;5131840;27;20028;-75
2022/09/16 08:15:18;;;;;;;6.65;2.22;;;;;;;27.94;33.07;94282.97;5131788;27;20039;-75
2022/09/16 08:17:43;;;;;;;11.43;3.13;;;;;;;28.00;31.75;94279.31;5113403;28;20085;-75
2022/09/16 08:20:09;;;;;;;13.68;3.00;;;;;;;27.96;32.32;94278.19;5130617;28;20087;-74
2022/09/16 08:22:34;;;;;;;9.23;2.75;;;;;;;28.00;32.30;94273.97;5130484;28;20034;-75
2022/09/16 08:24:59;;;;;;;12.45;2.60;;;;;;;28.04;32.23;94284.97;5130735;28;20106;-74
2022/09/16 08:27:25;;;;;;;10.10;2.70;;;;;;;28.14;32.85;94286.94;5131926;27;20023;-74
2022/09/16 08:29:51;;;;;;;10.48;2.60;;;;;;;28.20;32.74;94273.41;5113252;28;20023;-74
2022/09/16 08:32:16;;;;;;;16.70;2.65;;;;;;;28.33;32.62;94277.53;5116141;27;20031;-75
2022/09/16 08:34:41;;;;;;;13.52;3.33;;;;;;;28.36;32.35;94269.06;5134705;27;20023;-74
2022/09/16 08:37:07;;;;;;;11.35;2.78;;;;;;;28.36;31.87;94258.38;5134797;27;20046;-74
2022/09/16 08:39:33;;;;;;;10.23;2.90;;;;;;;28.37;32.04;94251.97;5117610;27;20070;-74
2022/09/16 08:42:30;;;;;;;11.48;2.60;;;;;;;28.39;32.24;94260.53;5117259;27;20385;-74
2022/09/16 08:45:27;;;;;;;12.73;2.90;;;;;;;28.33;32.98;94277.53;5135750;27;20414;-74
2022/09/16 08:48:06;;;;;;;9.57;2.83;;;;;;;28.35;32.86;94267.44;5119149;27;20027;-74
2022/09/16 08:50:40;;;;;;;12.03;3.00;;;;;;;28.26;32.57;94255.59;5134436;27;20138;-74
2022/09/16 08:53:31;;;;;;;14.77;3.00;;;;;;;28.19;32.13;94260.31;5100251;27;20273;-74
2022/09/16 08:55:57;;;;;;;13.18;2.50;;;;;;;28.07;32.78;94242.56;5120375;27;20530;-74
2022/09/16 08:58:24;;;;;;;11.05;3.10;;;;;;;27.92;33.04;94239.72;5099990;27;20035;-74
2022/09/16 09:00:58;;;;;;;15.55;3.08;;;;;;;27.97;32.72;94236.28;5134311;27;20023;-74
2022/09/16 09:03:36;;;;;;;13.40;3.08;;;;;;;27.98;34.05;94238.72;5117211;27;20114;-74
2022/09/16 09:06:05;;;;;;;11.23;2.95;;;;;;;27.99;33.16;94251.00;5118127;27;20023;-74
2022/09/16 09:08:34;;;;;;;9.20;2.70;;;;;;;28.03;33.74;94252.13;5117308;27;20030;-74
2022/09/16 09:11:38;;;;;;;12.23;2.83;;;;;;;28.07;33.87;94250.56;5135478;27;20019;-74
2022/09/16 09:14:25;;;;;;;13.32;2.85;;;;;;;27.99;34.25;94239.53;5133662;27;20035;-74
2022/09/16 09:16:57;;;;;;;16.65;4.03;;;;;;;28.01;33.27;94251.56;5134012;27;20057;-74
2022/09/16 09:19:41;;;;;;;10.60;3.95;;;;;;;28.00;33.36;94254.47;5133932;27;20039;-74
2022/09/16 09:22:31;;;;;;;11.60;3.45;;;;;;;28.02;33.56;94258.50;5135451;27;20031;-74
2022/09/16 09:25:02;;;;;;;12.35;3.55;;;;;;;28.05;33.76;94265.22;5133964;27;20031;-74
2022/09/16 09:27:37;;;;;;;13.07;4.15;;;;;;;28.03;33.80;94262.81;5133573;27;20409;-74
2022/09/16 09:30:20;;;;;;;14.25;3.50;;;;;;;27.98;34.05;94254.72;5134846;27;20019;-74
2022/09/16 09:33:08;;;;;;;10.32;3.53;;;;;;;27.99;33.90;94258.22;5117089;27;20031;-74
2022/09/16 09:35:58;;;;;;;11.48;3.10;;;;;;;28.02;33.91;94260.38;5134952;27;20261;-74
2022/09/16 09:38:46;;;;;;;8.65;2.88;;;;;;;28.00;34.13;94249.97;5134742;27;20035;-74
2022/09/16 09:41:14;;;;;;;11.15;3.35;;;;;;;27.99;33.84;94253.66;5134986;27;20031;-74
2022/09/16 09:43:51;;;;;;;11.02;4.05;;;;;;;27.94;33.79;94245.59;5132720;27;20106;-74
2022/09/16 09:46:35;;;;;;;16.58;3.47;;;;;;;27.93;33.83;94254.66;5116644;27;20035;-74
2022/09/16 09:49:09;;;;;;;15.68;3.17;;;;;;;27.92;33.77;94255.72;5099803;27;20058;-74
2022/09/16 09:51:44;;;;;;;8.73;2.88;;;;;;;27.84;33.52;94262.31;5134841;27;20027;-74
2022/09/16 09:54:30;;;;;;;15.88;3.50;;;;;;;27.88;34.18;94269.81;5133558;27;20122;-74
2022/09/16 09:56:59;;;;;;;7.72;2.95;;;;;;;27.85;34.25;94268.44;5115992;27;20447;-74
2022/09/16 09:59:37;;;;;;;11.93;2.60;;;;;;;27.80;34.22;94263.88;5132987;27;20031;-74
2022/09/16 10:02:08;;;;;;;12.75;2.85;;;;;;;27.76;33.60;94272.56;5133097;27;20023;-74
2022/09/16 10:04:36;;;;;;;15.85;3.28;;;;;;;27.57;33.82;94264.03;5116155;27;20034;-74
2022/09/16 10:07:02;;;;;;;9.25;2.75;;;;;;;27.45;35.24;94280.16;5133130;27;20031;-74
2022/09/16 10:09:27;;;;;;;13.90;2.92;;;;;;;27.43;35.10;94292.09;5115859;27;20307;-74
2022/09/16 10:11:54;;;;;;;8.65;2.80;;;;;;;27.41;34.03;94295.00;5133040;27;20085;-74
2022/09/16 10:14:33;;;;;;;10.45;3.00;;;;;;;27.29;35.52;94291.63;5098766;27;20505;-73
2022/09/16 10:17:03;;;;;;;11.53;3.13;;;;;;;27.35;35.63;94299.47;5115577;27;20492;-73
2022/09/16 10:19:30;;;;;;;18.17;3.50;;;;;;;27.27;36.12;94317.72;5132753;27;20027;-73
2022/09/16 10:22:07;;;;;;;12.15;3.45;;;;;;;27.22;37.31;94341.63;5115774;27;20055;-73
2022/09/16 10:24:33;;;;;;;11.38;3.05;;;;;;;27.20;37.23;94354.41;5132595;27;20033;-74
2022/09/16 10:26:59;;;;;;;10.48;3.45;;;;;;;27.07;36.55;94372.28;5134151;27;20031;-73
2022/09/16 10:29:25;;;;;;;10.20;3.40;;;;;;;27.02;36.21;94400.69;5132554;27;20029;-73
2022/09/16 10:31:51;;;;;;;12.20;3.67;;;;;;;26.66;36.73;94416.00;5115459;27;20039;-73
2022/09/16 10:34:16;;;;;;;13.23;3.20;;;;;;;26.54;37.40;94440.00;5115304;27;20027;-72
2022/09/16 10:36:41;;;;;;;8.68;3.20;;;;;;;26.30;38.29;94464.00;5133927;27;20033;-73
2022/09/16 10:39:21;;;;;;;14.65;2.90;;;;;;;25.98;40.82;94473.38;5132447;27;20019;-72
2022/09/16 10:41:46;;;;;;;14.43;2.83;;;;;;;25.56;42.81;94460.91;5115619;27;20039;-72
2022/09/16 10:44:18;;;;;;;14.63;3.35;;;;;;;25.17;46.08;94457.00;5132265;27;20068;-72
2022/09/16 10:47:05;;;;;;;7.28;2.70;;;;;;;25.05;46.62;94493.31;5098497;27;20035;-72
2022/09/16 10:49:43;;;;;;;11.93;2.30;;;;;;;24.09;46.66;94501.66;5132370;27;20023;-73
2022/09/16 10:52:21;;;;;;;7.55;2.00;;;;;;;23.81;47.40;94501.28;5115021;27;20104;-73
2022/09/16 10:54:46;;;;;;;6.18;1.60;;;;;;;23.63;47.88;94497.53;5114839;27;20035;-72
2022/09/16 10:57:31;;;;;;;4.95;1.58;;;;;;;23.63;48.25;94481.63;5114984;27;20152;-73
2022/09/16 11:00:10;;;;;;;8.13;1.85;;;;;;;23.63;48.94;94471.03;5115302;27;20223;-72
2022/09/16 11:02:44;;;;;;;4.65;1.13;;;;;;;23.53;48.41;94472.53;5131733;27;20110;-72
2022/09/16 11:05:39;;;;;;;2.90;0.98;;;;;;;23.49;50.33;94474.81;5132961;27;20039;-73
2022/09/16 11:08:13;;;;;;;3.33;0.90;;;;;;;23.37;50.21;94468.56;5133068;27;20023;-73
2022/09/16 11:10:59;;;;;;;4.95;1.02;;;;;;;23.20;48.18;94445.22;5131715;27;20027;-73
2022/09/16 11:13:50;;;;;;;2.20;0.70;;;;;;;23.07;47.02;94413.53;5131618;27;20049;-73
2022/09/16 11:16:16;;;;;;;2.22;0.73;;;;;;;22.93;47.09;94402.19;5131825;27;20035;-73
2022/09/16 11:19:26;;;;;;;3.53;0.75;;;;;;;22.76;47.63;94398.38;5132799;27;20053;-72
2022/09/16 11:22:16;;;;;;;3.20;0.77;;;;;;;22.60;47.63;94388.31;5089432;28;20036;-72
2022/09/16 11:24:44;;;;;;;2.83;0.88;;;;;;;22.51;47.30;94393.84;5073957;28;20452;-72
2022/09/16 11:27:34;;;;;;;2.15;0.70;;;;;;;22.46;47.37;94382.28;5118730;27;20047;-72
2022/09/16 11:30:09;;;;;;;2.77;0.80;;;;;;;22.45;46.93;94373.50;5132590;27;20031;-72
2022/09/16 11:32:46;;;;;;;1.38;0.50;;;;;;;22.33;47.10;94361.97;5115289;27;20029;-72
2022/09/16 11:35:30;;;;;;;1.40;0.55;;;;;;;22.36;45.45;94364.19;5132360;27;20039;-73
2022/09/16 11:38:10;;;;;;;2.17;0.57;;;;;;;22.30;45.49;94331.44;5131154;27;20027;-72
2022/09/16 11:40:47;;;;;;;1.38;0.50;;;;;;;22.52;44.91;94312.63;5115368;27;20382;-72
2022/09/16 11:43:51;;;;;;;1.33;0.50;;;;;;;22.56;43.53;94310.34;5113862;27;20027;-72
2022/09/16 11:46:25;;;;;;;2.10;0.55;;;;;;;22.68;43.34;94288.28;5132554;27;20119;-72
2022/09/16 11:48:53;;;;;;;0.75;0.32;;;;;;;22.91;42.28;94281.59;5114516;27;20038;-73
2022/09/16 11:51:22;;;;;;;3.08;0.47;;;;;;;23.19;41.50;94276.69;5131076;27;20505;-72